createdAt,value
2022-08-01T00:00:51.180Z,86.26
2022-08-01T00:01:51.231Z,86.16
2022-08-01T00:02:51.184Z,84.95
2022-08-01T00:03:51.130Z,85.05
2022-08-01T00:04:51.121Z,85.25
2022-08-01T00:05:51.103Z,85.05
2022-08-01T00:06:51.099Z,85.86
2022-08-01T00:07:51.083Z,85.16
2022-08-01T00:08:51.072Z,85.66
2022-08-01T00:09:51.059Z,85.86
2022-08-01T00:10:51.038Z,86.16
2022-08-01T00:12:00.093Z,86.26
2022-08-01T00:12:51.014Z,85.86
2022-08-01T00:13:50.996Z,86.71
2022-08-01T00:14:50.991Z,84.75
2022-08-01T00:15:53.678Z,85.46
2022-08-01T00:16:50.966Z,85.96
2022-08-01T00:17:50.944Z,85.96
2022-08-01T00:18:50.936Z,85.16
2022-08-01T00:19:50.920Z,82.44
2022-08-01T00:20:50.926Z,83.14
2022-08-01T00:21:52.063Z,84.09
2022-08-01T00:22:50.886Z,84.89
2022-08-01T00:23:50.869Z,84.19
2022-08-01T00:24:50.858Z,84.69
2022-08-01T00:25:50.846Z,85.10
2022-08-01T00:26:50.832Z,86.30
2022-08-01T00:27:50.816Z,86.51
2022-08-01T00:28:50.800Z,86.21
2022-08-01T00:30:13.810Z,85.40
2022-08-01T00:30:50.776Z,86.00
2022-08-01T00:31:50.759Z,86.61
2022-08-01T00:32:50.751Z,86.81
2022-08-01T00:33:50.737Z,87.11
2022-08-01T00:34:50.724Z,87.25
2022-08-01T00:35:50.712Z,87.41
2022-08-01T00:36:50.697Z,86.81
2022-08-01T00:37:50.682Z,86.51
2022-08-01T00:38:50.867Z,87.05
2022-08-01T00:39:50.653Z,87.25
2022-08-01T00:40:50.644Z,86.85
2022-08-01T00:41:50.627Z,87.05
2022-08-01T00:42:51.638Z,86.44
2022-08-01T00:43:50.603Z,86.65
2022-08-01T00:44:50.596Z,86.95
2022-08-01T00:45:50.575Z,87.25
2022-08-01T00:46:50.578Z,86.95
2022-08-01T00:47:55.160Z,86.65
2022-08-01T00:48:50.575Z,86.55
2022-08-01T00:49:50.522Z,86.15
2022-08-01T00:50:50.511Z,87.25
2022-08-01T00:51:50.491Z,87.70
2022-08-01T00:52:51.519Z,87.76
2022-08-01T00:53:50.996Z,88.20
2022-08-01T00:54:50.465Z,88.16
2022-08-01T00:55:50.441Z,87.90
2022-08-01T00:56:50.433Z,86.85
2022-08-01T00:58:03.055Z,86.99
2022-08-01T00:58:50.483Z,87.15
2022-08-01T00:59:50.401Z,88.20
2022-08-01T01:00:53.283Z,88.40
2022-08-01T01:01:50.399Z,88.60
2022-08-01T01:02:50.352Z,87.70
2022-08-01T01:03:59.484Z,87.29
2022-08-01T01:04:51.347Z,88.20
2022-08-01T01:05:50.313Z,88.30
2022-08-01T01:06:50.301Z,88.10
2022-08-01T01:07:50.316Z,88.30
2022-08-01T01:08:50.272Z,87.19
2022-08-01T01:09:50.258Z,87.74
2022-08-01T01:10:50.247Z,88.81
2022-08-01T01:11:50.229Z,89.11
2022-08-01T01:12:50.436Z,88.75
2022-08-01T01:13:51.059Z,88.81
2022-08-01T01:14:50.194Z,89.11
2022-08-01T01:15:50.180Z,89.05
2022-08-01T01:16:50.166Z,88.45
2022-08-01T01:17:51.934Z,88.00
2022-08-01T01:18:50.144Z,88.14
2022-08-01T01:19:50.134Z,89.15
2022-08-01T01:20:50.114Z,89.45
2022-08-01T01:21:50.105Z,88.45
2022-08-01T01:22:50.083Z,88.95
2022-08-01T01:23:50.080Z,89.09
2022-08-01T01:24:50.055Z,89.15
2022-08-01T01:25:50.043Z,89.59
2022-08-01T01:26:50.029Z,90.06
2022-08-01T01:27:50.025Z,89.79
2022-08-01T01:28:50.006Z,89.39
2022-08-01T01:29:59.374Z,90.06
2022-08-01T01:30:49.983Z,89.59
2022-08-01T01:31:49.972Z,89.45
2022-08-01T01:32:49.960Z,89.39
2022-08-01T01:33:49.944Z,89.59
2022-08-01T01:34:49.930Z,90.20
2022-08-01T01:35:49.919Z,90.00
2022-08-01T01:36:49.903Z,90.30
2022-08-01T01:37:49.893Z,90.00
2022-08-01T01:38:49.871Z,89.90
2022-08-01T01:39:54.220Z,89.59
2022-08-01T01:40:49.850Z,89.50
2022-08-01T01:41:49.833Z,89.39
2022-08-01T01:42:49.822Z,89.50
2022-08-01T01:43:49.809Z,90.34
2022-08-01T01:44:49.802Z,90.20
2022-08-01T01:45:49.783Z,90.55
2022-08-01T01:46:49.765Z,90.75
2022-08-01T01:47:49.764Z,90.55
2022-08-01T01:48:49.866Z,90.65
2022-08-01T01:49:49.732Z,90.10
2022-08-01T01:50:49.718Z,90.55
2022-08-01T01:52:02.251Z,90.75
2022-08-01T01:52:49.685Z,91.15
2022-08-01T01:53:49.682Z,91.35
2022-08-01T01:54:49.663Z,91.25
2022-08-01T01:55:50.273Z,90.85
2022-08-01T01:56:49.641Z,90.34
2022-08-01T01:57:49.628Z,90.45
2022-08-01T01:58:49.611Z,91.35
2022-08-01T01:59:49.609Z,91.46
2022-08-01T02:00:50.488Z,90.65
2022-08-01T02:02:08.776Z,90.04
2022-08-01T02:02:49.662Z,90.45
2022-08-01T02:03:49.543Z,91.09
2022-08-01T02:04:49.534Z,91.70
2022-08-01T02:05:49.517Z,91.80
2022-08-01T02:06:49.501Z,91.90
2022-08-01T02:07:49.488Z,91.76
2022-08-01T02:08:49.480Z,91.60
2022-08-01T02:09:49.458Z,91.46
2022-08-01T02:10:49.455Z,91.80
2022-08-01T02:12:08.073Z,92.00
2022-08-01T02:12:49.430Z,92.10
2022-08-01T02:13:49.408Z,91.80
2022-08-01T02:14:49.394Z,92.10
2022-08-01T02:15:59.007Z,92.21
2022-08-01T02:16:49.373Z,91.90
2022-08-01T02:17:49.351Z,92.00
2022-08-01T02:18:49.349Z,92.00
2022-08-01T02:19:49.328Z,92.21
2022-08-01T02:20:49.316Z,92.30
2022-08-01T02:21:49.306Z,92.41
2022-08-01T02:22:49.297Z,92.41
2022-08-01T02:23:49.277Z,92.50
2022-08-01T02:24:49.269Z,91.90
2022-08-01T02:26:10.519Z,92.41
2022-08-01T02:26:49.232Z,92.61
2022-08-01T02:27:49.227Z,91.90
2022-08-01T02:28:49.212Z,91.19
2022-08-01T02:29:49.191Z,91.39
2022-08-01T02:30:49.184Z,92.10
2022-08-01T02:31:49.170Z,92.41
2022-08-01T02:32:49.156Z,92.30
2022-08-01T02:33:49.137Z,92.35
2022-08-01T02:34:49.132Z,92.50
2022-08-01T02:36:32.397Z,93.01
2022-08-01T02:36:50.137Z,92.50
2022-08-01T02:37:49.088Z,91.80
2022-08-01T02:38:49.080Z,92.05
2022-08-01T02:39:49.065Z,92.05
2022-08-01T02:40:49.054Z,92.85
2022-08-01T02:41:49.040Z,92.96
2022-08-01T02:42:49.024Z,92.76
2022-08-01T02:43:53.252Z,92.76
2022-08-01T02:44:48.998Z,92.35
2022-08-01T02:45:48.982Z,92.14
2022-08-01T02:46:48.977Z,92.25
2022-08-01T02:47:48.960Z,92.65
2022-08-01T02:48:48.991Z,93.05
2022-08-01T02:49:53.388Z,92.55
2022-08-01T02:50:48.912Z,92.45
2022-08-01T02:51:48.900Z,92.60
2022-08-01T02:52:48.892Z,93.00
2022-08-01T02:53:48.872Z,93.05
2022-08-01T02:54:48.865Z,93.30
2022-08-01T02:55:48.852Z,93.26
2022-08-01T02:56:48.840Z,93.60
2022-08-01T02:57:52.498Z,93.36
2022-08-01T02:58:48.811Z,93.26
2022-08-01T02:59:48.792Z,93.66
2022-08-01T03:00:48.785Z,92.85
2022-08-01T03:01:48.934Z,92.25
2022-08-01T03:02:48.759Z,92.40
2022-08-01T03:03:48.743Z,92.96
2022-08-01T03:04:51.584Z,93.40
2022-08-01T03:05:48.711Z,93.60
2022-08-01T03:06:48.699Z,93.60
2022-08-01T03:07:48.788Z,93.51
2022-08-01T03:08:48.677Z,93.60
2022-08-01T03:09:48.655Z,93.71
2022-08-01T03:10:48.647Z,93.00
2022-08-01T03:11:48.626Z,92.85
2022-08-01T03:12:48.620Z,93.30
2022-08-01T03:13:48.601Z,93.00
2022-08-01T03:14:48.595Z,92.90
2022-08-01T03:15:48.581Z,92.90
2022-08-01T03:16:48.568Z,93.40
2022-08-01T03:17:48.551Z,93.81
2022-08-01T03:18:48.544Z,93.91
2022-08-01T03:19:48.520Z,93.40
2022-08-01T03:20:48.511Z,93.30
2022-08-01T03:21:48.495Z,93.55
2022-08-01T03:22:48.489Z,93.24
2022-08-01T03:23:52.278Z,93.60
2022-08-01T03:24:49.491Z,93.65
2022-08-01T03:25:48.442Z,93.30
2022-08-01T03:26:48.435Z,92.90
2022-08-01T03:27:48.418Z,93.15
2022-08-01T03:28:48.410Z,93.65
2022-08-01T03:29:48.391Z,93.24
2022-08-01T03:30:48.380Z,93.75
2022-08-01T03:31:48.359Z,94.06
2022-08-01T03:32:48.349Z,93.85
2022-08-01T03:33:48.331Z,93.95
2022-08-01T03:34:48.324Z,93.85
2022-08-01T03:35:48.303Z,94.15
2022-08-01T03:36:49.963Z,94.36
2022-08-01T03:38:13.468Z,94.15
2022-08-01T03:38:48.273Z,93.95
2022-08-01T03:39:48.257Z,93.85
2022-08-01T03:40:48.249Z,93.85
2022-08-01T03:41:48.229Z,94.06
2022-08-01T03:42:48.226Z,93.95
2022-08-01T03:43:48.208Z,94.06
2022-08-01T03:44:48.292Z,93.95
2022-08-01T03:45:48.180Z,93.95
2022-08-01T03:46:48.163Z,94.15
2022-08-01T03:47:48.146Z,94.10
2022-08-01T03:48:48.198Z,94.15
2022-08-01T03:49:48.125Z,94.06
2022-08-01T03:50:48.112Z,94.15
2022-08-01T03:51:48.097Z,94.15
2022-08-01T03:52:48.086Z,94.06
2022-08-01T03:53:48.067Z,94.26
2022-08-01T03:54:48.059Z,94.56
2022-08-01T03:55:48.047Z,94.56
2022-08-01T03:56:48.032Z,94.26
2022-08-01T03:57:48.014Z,93.79
2022-08-01T03:58:49.981Z,93.90
2022-08-01T03:59:47.988Z,94.15
2022-08-01T04:00:47.980Z,94.06
2022-08-01T04:01:48.017Z,94.20
2022-08-01T04:02:47.959Z,94.36
2022-08-01T04:03:47.940Z,94.66
2022-08-01T04:04:47.929Z,94.46
2022-08-01T04:05:47.919Z,94.15
2022-08-01T04:06:47.910Z,94.20
2022-08-01T04:07:47.888Z,93.95
2022-08-01T04:08:47.884Z,93.95
2022-08-01T04:09:47.861Z,93.44
2022-08-01T04:10:47.851Z,93.55
2022-08-01T04:11:47.830Z,93.15
2022-08-01T04:12:47.826Z,93.44
2022-08-01T04:13:47.804Z,93.29
2022-08-01T04:14:47.796Z,93.44
2022-08-01T04:15:47.920Z,93.70
2022-08-01T04:16:47.776Z,93.55
2022-08-01T04:17:47.759Z,93.95
2022-08-01T04:18:47.778Z,93.95
2022-08-01T04:19:47.730Z,93.95
2022-08-01T04:20:47.718Z,93.85
2022-08-01T04:21:47.697Z,93.85
2022-08-01T04:22:47.691Z,93.95
2022-08-01T04:23:47.677Z,93.65
2022-08-01T04:24:47.669Z,93.65
2022-08-01T04:25:47.650Z,93.04
2022-08-01T04:26:47.644Z,92.94
2022-08-01T04:27:50.798Z,93.24
2022-08-01T04:28:47.613Z,92.84
2022-08-01T04:29:47.593Z,92.44
2022-08-01T04:30:47.586Z,91.93
2022-08-01T04:31:47.569Z,92.44
2022-08-01T04:32:47.561Z,91.93
2022-08-01T04:33:47.542Z,90.82
2022-08-01T04:34:47.542Z,90.62
2022-08-01T04:36:02.269Z,90.72
2022-08-01T04:36:47.501Z,90.92
2022-08-01T04:37:47.495Z,90.92
2022-08-01T04:38:47.483Z,91.02
2022-08-01T04:39:50.171Z,90.92
2022-08-01T04:40:47.452Z,90.92
2022-08-01T04:41:47.435Z,90.52
2022-08-01T04:42:47.430Z,91.12
2022-08-01T04:43:47.408Z,91.27
2022-08-01T04:44:47.399Z,90.62
2022-08-01T04:45:47.379Z,90.92
2022-08-01T04:46:47.372Z,90.82
2022-08-01T04:47:47.354Z,91.02
2022-08-01T04:48:47.422Z,90.72
2022-08-01T04:49:49.229Z,90.92
2022-08-01T04:50:47.325Z,91.22
2022-08-01T04:51:47.306Z,90.92
2022-08-01T04:52:47.292Z,91.06
2022-08-01T04:53:47.282Z,91.12
2022-08-01T04:54:47.276Z,92.18
2022-08-01T04:55:47.351Z,91.47
2022-08-01T04:56:47.243Z,91.42
2022-08-01T04:57:47.231Z,91.83
2022-08-01T04:58:47.216Z,92.24
2022-08-01T04:59:47.199Z,92.13
2022-08-01T05:00:47.499Z,92.24
2022-08-01T05:01:47.266Z,92.24
2022-08-01T05:02:47.165Z,91.99
2022-08-01T05:03:47.147Z,91.49
2022-08-01T05:04:47.136Z,91.83
2022-08-01T05:05:47.124Z,91.49
2022-08-01T05:06:47.107Z,91.53
2022-08-01T05:07:47.091Z,91.18
2022-08-01T05:08:47.078Z,90.88
2022-08-01T05:09:47.076Z,90.33
2022-08-01T05:10:47.054Z,90.43
2022-08-01T05:11:47.045Z,89.72
2022-08-01T05:12:47.024Z,90.43
2022-08-01T05:13:47.013Z,90.43
2022-08-01T05:14:47.012Z,89.83
2022-08-01T05:15:46.988Z,89.58
2022-08-01T05:16:46.984Z,89.37
2022-08-01T05:17:46.962Z,89.17
2022-08-01T05:18:46.953Z,89.78
2022-08-01T05:19:46.933Z,87.92
2022-08-01T05:20:46.921Z,88.32
2022-08-01T05:21:46.912Z,88.12
2022-08-01T05:22:46.906Z,88.02
2022-08-01T05:23:46.881Z,87.27
2022-08-01T05:24:47.053Z,86.87
2022-08-01T05:25:57.144Z,86.67
2022-08-01T05:26:47.861Z,86.02
2022-08-01T05:27:46.844Z,85.02
2022-08-01T05:28:46.812Z,85.82
2022-08-01T05:29:46.809Z,85.42
2022-08-01T05:30:46.786Z,84.91
2022-08-01T05:31:46.774Z,84.47
2022-08-01T05:32:46.757Z,84.11
2022-08-01T05:33:46.753Z,84.57
2022-08-01T05:34:46.744Z,84.88
2022-08-01T05:35:48.135Z,85.28
2022-08-01T05:36:46.707Z,84.67
2022-08-01T05:37:46.698Z,84.77
2022-08-01T05:38:46.689Z,83.76
2022-08-01T05:39:46.739Z,84.17
2022-08-01T05:40:46.662Z,83.87
2022-08-01T05:41:46.647Z,83.52
2022-08-01T05:42:46.629Z,83.62
2022-08-01T05:43:46.618Z,83.93
2022-08-01T05:44:46.601Z,83.52
2022-08-01T05:45:46.594Z,84.23
2022-08-01T05:46:46.570Z,84.09
2022-08-01T05:47:46.563Z,84.09
2022-08-01T05:48:46.547Z,83.59
2022-08-01T05:49:46.537Z,82.80
2022-08-01T05:50:46.518Z,82.40
2022-08-01T05:51:46.505Z,80.85
2022-08-01T05:52:46.494Z,79.44
2022-08-01T05:53:46.480Z,80.01
2022-08-01T05:54:46.469Z,79.30
2022-08-01T05:55:46.461Z,78.70
2022-08-01T05:56:46.452Z,76.96
2022-08-01T05:57:46.436Z,76.76
2022-08-01T05:58:46.411Z,76.35
2022-08-01T05:59:46.404Z,78.36
2022-08-01T06:00:46.388Z,77.56
2022-08-01T06:01:46.436Z,77.86
2022-08-01T06:02:46.489Z,77.26
2022-08-01T06:03:46.354Z,75.55
2022-08-01T06:04:46.336Z,76.25
2022-08-01T06:05:46.335Z,76.25
2022-08-01T06:06:46.310Z,75.11
2022-08-01T06:07:46.302Z,76.21
2022-08-01T06:08:46.283Z,76.92
2022-08-01T06:09:46.280Z,76.48
2022-08-01T06:10:46.251Z,74.18
2022-08-01T06:11:46.244Z,74.44
2022-08-01T06:12:46.228Z,73.30
2022-08-01T06:13:48.705Z,72.70
2022-08-01T06:14:46.201Z,72.90
2022-08-01T06:15:46.190Z,73.00
2022-08-01T06:16:46.175Z,72.66
2022-08-01T06:17:46.164Z,73.07
2022-08-01T06:18:46.156Z,72.53
2022-08-01T06:19:46.141Z,70.53
2022-08-01T06:20:46.127Z,71.33
2022-08-01T06:21:46.117Z,71.39
2022-08-01T06:22:46.103Z,71.09
2022-08-01T06:23:47.116Z,71.30
2022-08-01T06:24:46.075Z,70.79
2022-08-01T06:25:46.068Z,70.66
2022-08-01T06:26:46.043Z,71.46
2022-08-01T06:27:46.034Z,69.76
2022-08-01T06:28:46.020Z,69.36
2022-08-01T06:29:51.278Z,68.76
2022-08-01T06:30:47.018Z,69.96
2022-08-01T06:31:45.985Z,69.99
2022-08-01T06:32:45.974Z,69.39
2022-08-01T06:33:45.957Z,69.62
2022-08-01T06:34:45.941Z,70.83
2022-08-01T06:35:45.931Z,71.03
2022-08-01T06:36:45.910Z,71.43
2022-08-01T06:37:45.924Z,71.53
2022-08-01T06:38:45.884Z,72.03
2022-08-01T06:39:45.872Z,70.83
2022-08-01T06:40:45.863Z,71.33
2022-08-01T06:41:45.855Z,70.43
2022-08-01T06:42:45.840Z,70.23
2022-08-01T06:43:45.825Z,71.69
2022-08-01T06:44:45.820Z,71.19
2022-08-01T06:45:45.802Z,70.62
2022-08-01T06:46:45.788Z,70.73
2022-08-01T06:47:45.786Z,71.03
2022-08-01T06:48:45.759Z,71.89
2022-08-01T06:49:45.757Z,70.59
2022-08-01T06:50:45.727Z,70.06
2022-08-01T06:51:45.716Z,70.56
2022-08-01T06:52:45.702Z,69.82
2022-08-01T06:53:45.694Z,69.62
2022-08-01T06:54:45.682Z,68.73
2022-08-01T06:55:45.666Z,69.89
2022-08-01T06:56:45.657Z,69.66
2022-08-01T06:57:45.640Z,68.93
2022-08-01T06:58:45.628Z,68.49
2022-08-01T06:59:51.983Z,66.66
2022-08-01T07:00:45.642Z,66.66
2022-08-01T07:01:45.593Z,65.73
2022-08-01T07:02:45.571Z,65.91
2022-08-01T07:03:52.785Z,65.80
2022-08-01T07:04:46.569Z,65.50
2022-08-01T07:05:45.534Z,65.08
2022-08-01T07:06:45.522Z,64.34
2022-08-01T07:07:45.527Z,65.21
2022-08-01T07:08:45.497Z,65.21
2022-08-01T07:09:45.488Z,62.32
2022-08-01T07:10:45.475Z,63.39
2022-08-01T07:11:45.461Z,62.62
2022-08-01T07:12:45.443Z,64.34
2022-08-01T07:13:45.785Z,63.75
2022-08-01T07:14:45.414Z,63.75
2022-08-01T07:15:45.407Z,63.82
2022-08-01T07:16:45.388Z,63.39
2022-08-01T07:17:45.380Z,64.06
2022-08-01T07:18:45.369Z,64.42
2022-08-01T07:19:45.353Z,62.73
2022-08-01T07:20:52.703Z,61.64
2022-08-01T07:21:45.416Z,60.94
2022-08-01T07:22:47.536Z,61.94
2022-08-01T07:23:46.019Z,62.73
2022-08-01T07:24:45.872Z,61.54
2022-08-01T07:25:50.683Z,61.67
2022-08-01T07:26:53.248Z,62.34
2022-08-01T07:27:45.260Z,61.94
2022-08-01T07:28:45.246Z,61.41
2022-08-01T07:29:45.232Z,61.80
2022-08-01T07:30:45.214Z,61.61
2022-08-01T07:31:45.201Z,62.01
2022-08-01T07:32:45.182Z,61.11
2022-08-01T07:33:48.651Z,60.78
2022-08-01T07:34:45.163Z,60.26
2022-08-01T07:35:45.153Z,60.66
2022-08-01T07:36:45.137Z,58.74
2022-08-01T07:37:49.178Z,60.17
2022-08-01T07:38:45.107Z,57.97
2022-08-01T07:39:45.099Z,57.64
2022-08-01T07:40:45.077Z,57.12
2022-08-01T07:41:53.422Z,56.23
2022-08-01T07:42:45.056Z,55.83
2022-08-01T07:43:54.546Z,56.82
2022-08-01T07:44:45.032Z,56.10
2022-08-01T07:45:46.617Z,55.38
2022-08-01T07:46:45.008Z,54.56
2022-08-01T07:47:44.991Z,53.75
2022-08-01T07:48:44.977Z,54.78
2022-08-01T07:49:44.993Z,52.11
2022-08-01T07:50:44.950Z,51.50
2022-08-01T07:52:03.989Z,50.90
2022-08-01T07:52:45.953Z,52.09
2022-08-01T07:53:44.918Z,51.10
2022-08-01T07:54:49.211Z,52.01
2022-08-01T07:55:46.084Z,52.48
2022-08-01T07:56:44.877Z,51.42
2022-08-01T07:57:45.071Z,51.75
2022-08-01T07:58:44.855Z,53.12
2022-08-01T07:59:44.843Z,52.34
2022-08-01T08:00:44.824Z,52.93
2022-08-01T08:01:44.863Z,52.24
2022-08-01T08:02:44.804Z,51.92
2022-08-01T08:03:44.797Z,51.99
2022-08-01T08:04:48.921Z,51.07
2022-08-01T08:05:58.443Z,50.83
2022-08-01T08:06:44.754Z,51.89
2022-08-01T08:07:44.788Z,51.25
2022-08-01T08:08:44.733Z,50.12
2022-08-01T08:09:44.815Z,46.53
2022-08-01T08:10:44.704Z,46.68
2022-08-01T08:11:47.800Z,46.75
2022-08-01T08:12:44.693Z,47.44
2022-08-01T08:13:44.661Z,46.68
2022-08-01T08:14:44.648Z,49.16
2022-08-01T08:15:44.645Z,48.74
2022-08-01T08:16:44.624Z,47.07
2022-08-01T08:17:44.749Z,47.58
2022-08-01T08:18:44.607Z,47.61
2022-08-01T08:19:44.594Z,48.69
2022-08-01T08:20:44.613Z,47.91
2022-08-01T08:21:44.840Z,48.22
2022-08-01T08:22:44.555Z,49.21
2022-08-01T08:23:44.547Z,48.59
2022-08-01T08:24:46.506Z,48.25
2022-08-01T08:25:44.526Z,47.76
2022-08-01T08:26:44.503Z,47.34
2022-08-01T08:27:44.497Z,47.34
2022-08-01T08:28:44.478Z,46.95
2022-08-01T08:29:45.054Z,47.66
2022-08-01T08:30:44.451Z,47.07
2022-08-01T08:31:52.307Z,47.25
2022-08-01T08:32:44.428Z,47.49
2022-08-01T08:33:44.420Z,45.98
2022-08-01T08:34:44.434Z,47.20
2022-08-01T08:35:54.267Z,44.91
2022-08-01T08:36:47.945Z,44.48
2022-08-01T08:37:47.553Z,42.52
2022-08-01T08:38:44.362Z,43.38
2022-08-01T08:39:44.352Z,41.83
2022-08-01T08:40:44.538Z,42.52
2022-08-01T08:41:44.328Z,42.70
2022-08-01T08:42:44.306Z,44.88
2022-08-01T08:43:44.300Z,45.23
2022-08-01T08:44:44.626Z,43.52
2022-08-01T08:45:58.214Z,44.65
2022-08-01T08:46:45.289Z,41.82
2022-08-01T08:47:44.260Z,41.97
2022-08-01T08:48:44.241Z,44.82
2022-08-01T08:49:44.262Z,45.27
2022-08-01T08:50:44.214Z,45.32
2022-08-01T08:51:44.209Z,43.37
2022-08-01T08:52:44.190Z,46.33
2022-08-01T08:53:44.186Z,43.81
2022-08-01T08:54:44.167Z,43.42
2022-08-01T08:55:56.231Z,41.93
2022-08-01T08:56:45.275Z,44.34
2022-08-01T08:57:44.134Z,41.17
2022-08-01T08:58:44.124Z,42.40
2022-08-01T08:59:44.116Z,42.14
2022-08-01T09:00:44.102Z,42.07
2022-08-01T09:01:44.097Z,41.93
2022-08-01T09:02:44.086Z,41.93
2022-08-01T09:03:44.074Z,41.86
2022-08-01T09:04:44.056Z,42.71
2022-08-01T09:05:44.052Z,44.09
2022-08-01T09:06:44.371Z,44.37
2022-08-01T09:07:44.032Z,44.49
2022-08-01T09:08:44.021Z,42.79
2022-08-01T09:09:44.013Z,41.21
2022-08-01T09:10:43.989Z,41.77
2022-08-01T09:11:43.987Z,41.38
2022-08-01T09:12:44.994Z,42.30
2022-08-01T09:13:45.218Z,39.92
2022-08-01T09:14:43.948Z,39.37
2022-08-01T09:15:43.947Z,39.82
2022-08-01T09:16:48.327Z,40.84
2022-08-01T09:17:43.917Z,41.11
2022-08-01T09:18:43.907Z,42.63
2022-08-01T09:19:43.900Z,41.79
2022-08-01T09:20:43.884Z,40.78
2022-08-01T09:21:43.879Z,39.59
2022-08-01T09:22:47.669Z,37.66
2022-08-01T09:23:54.515Z,38.81
2022-08-01T09:24:43.833Z,40.94
2022-08-01T09:25:47.911Z,41.58
2022-08-01T09:26:43.811Z,41.71
2022-08-01T09:27:44.169Z,40.62
2022-08-01T09:28:47.778Z,40.52
2022-08-01T09:29:43.780Z,39.39
2022-08-01T09:30:43.771Z,37.60
2022-08-01T09:31:47.626Z,37.74
2022-08-01T09:32:43.752Z,37.74
2022-08-01T09:33:43.792Z,39.24
2022-08-01T09:34:43.727Z,39.20
2022-08-01T09:35:44.296Z,40.47
2022-08-01T09:36:43.702Z,41.07
2022-08-01T09:37:47.199Z,42.88
2022-08-01T09:38:47.732Z,42.52
2022-08-01T09:39:43.674Z,42.26
2022-08-01T09:40:43.654Z,40.68
2022-08-01T09:41:43.655Z,40.66
2022-08-01T09:42:43.641Z,40.06
2022-08-01T09:43:43.624Z,39.80
2022-08-01T09:44:45.608Z,39.47
2022-08-01T09:45:43.916Z,41.60
2022-08-01T09:46:43.596Z,39.72
2022-08-01T09:47:43.583Z,39.70
2022-08-01T09:48:43.586Z,38.63
2022-08-01T09:49:50.772Z,39.75
2022-08-01T09:50:43.554Z,39.14
2022-08-01T09:51:59.185Z,40.25
2022-08-01T09:52:43.530Z,37.71
2022-08-01T09:53:43.517Z,40.03
2022-08-01T09:54:44.526Z,39.14
2022-08-01T09:55:43.491Z,38.83
2022-08-01T09:56:43.485Z,38.03
2022-08-01T09:57:43.468Z,38.29
2022-08-01T09:58:43.465Z,37.96
2022-08-01T09:59:57.699Z,37.22
2022-08-01T10:00:45.678Z,36.77
2022-08-01T10:01:43.439Z,38.24
2022-08-01T10:02:43.417Z,38.70
2022-08-01T10:03:43.449Z,37.52
2022-08-01T10:04:43.529Z,38.56
2022-08-01T10:05:50.094Z,39.10
2022-08-01T10:06:43.372Z,39.23
2022-08-01T10:07:44.476Z,40.68
2022-08-01T10:08:43.357Z,41.49
2022-08-01T10:09:43.340Z,43.02
2022-08-01T10:10:43.336Z,44.31
2022-08-01T10:11:43.313Z,44.12
2022-08-01T10:12:44.395Z,44.80
2022-08-01T10:13:43.291Z,43.29
2022-08-01T10:14:43.287Z,41.86
2022-08-01T10:15:43.265Z,41.83
2022-08-01T10:16:43.255Z,40.14
2022-08-01T10:17:50.552Z,40.41
2022-08-01T10:18:43.234Z,39.00
2022-08-01T10:19:43.218Z,39.55
2022-08-01T10:20:43.213Z,38.40
2022-08-01T10:21:58.210Z,39.70
2022-08-01T10:22:44.209Z,38.77
2022-08-01T10:23:43.191Z,39.04
2022-08-01T10:24:43.173Z,39.82
2022-08-01T10:25:46.629Z,40.94
2022-08-01T10:26:43.148Z,40.66
2022-08-01T10:27:43.134Z,42.25
2022-08-01T10:28:43.127Z,41.29
2022-08-01T10:29:46.024Z,41.97
2022-08-01T10:30:43.106Z,42.90
2022-08-01T10:31:43.093Z,43.68
2022-08-01T10:32:43.088Z,42.62
2022-08-01T10:33:51.260Z,43.04
2022-08-01T10:34:45.231Z,44.16
2022-08-01T10:35:47.926Z,44.98
2022-08-01T10:36:43.031Z,45.89
2022-08-01T10:37:52.122Z,47.51
2022-08-01T10:38:44.039Z,48.42
2022-08-01T10:39:42.995Z,48.22
2022-08-01T10:40:43.049Z,47.83
2022-08-01T10:41:43.182Z,47.95
2022-08-01T10:42:42.961Z,48.07
2022-08-01T10:43:46.936Z,49.65
2022-08-01T10:44:42.939Z,49.35
2022-08-01T10:45:42.919Z,50.16
2022-08-01T10:46:45.783Z,49.06
2022-08-01T10:47:50.964Z,50.26
2022-08-01T10:48:43.936Z,49.67
2022-08-01T10:49:42.924Z,49.18
2022-08-01T10:50:42.870Z,49.38
2022-08-01T10:51:52.780Z,48.96
2022-08-01T10:52:42.845Z,48.14
2022-08-01T10:53:43.184Z,47.63
2022-08-01T10:54:52.771Z,48.61
2022-08-01T10:55:42.803Z,49.28
2022-08-01T10:56:42.810Z,49.21
2022-08-01T10:57:42.780Z,46.55
2022-08-01T10:58:44.423Z,47.95
2022-08-01T10:59:50.766Z,49.33
2022-08-01T11:00:42.744Z,49.55
2022-08-01T11:01:45.103Z,49.95
2022-08-01T11:02:45.454Z,50.07
2022-08-01T11:03:56.911Z,49.28
2022-08-01T11:04:42.717Z,50.29
2022-08-01T11:05:42.682Z,50.07
2022-08-01T11:06:43.689Z,49.20
2022-08-01T11:07:42.651Z,50.29
2022-08-01T11:08:42.641Z,50.38
2022-08-01T11:09:42.628Z,51.18
2022-08-01T11:10:42.620Z,48.83
2022-08-01T11:11:42.602Z,50.41
2022-08-01T11:12:44.044Z,50.12
2022-08-01T11:13:42.582Z,50.78
2022-08-01T11:14:55.605Z,49.10
2022-08-01T11:15:50.202Z,49.79
2022-08-01T11:16:42.549Z,49.79
2022-08-01T11:17:43.013Z,48.32
2022-08-01T11:18:42.525Z,50.12
2022-08-01T11:19:42.509Z,49.03
2022-08-01T11:20:42.578Z,49.72
2022-08-01T11:21:56.792Z,49.90
2022-08-01T11:22:42.476Z,50.38
2022-08-01T11:23:42.462Z,50.59
2022-08-01T11:24:42.468Z,51.45
2022-08-01T11:26:05.732Z,51.74
2022-08-01T11:26:43.442Z,50.51
2022-08-01T11:27:42.405Z,49.33
2022-08-01T11:28:54.433Z,49.90
2022-08-01T11:29:42.386Z,49.85
2022-08-01T11:30:42.381Z,48.25
2022-08-01T11:31:42.375Z,47.91
2022-08-01T11:32:58.976Z,47.59
2022-08-01T11:33:42.381Z,46.37
2022-08-01T11:34:42.334Z,45.39
2022-08-01T11:35:42.313Z,45.95
2022-08-01T11:36:58.042Z,46.56
2022-08-01T11:37:43.322Z,46.49
2022-08-01T11:38:42.274Z,45.68
2022-08-01T11:39:42.261Z,45.41
2022-08-01T11:40:42.251Z,47.30
2022-08-01T11:41:42.237Z,46.66
2022-08-01T11:42:42.234Z,47.29
2022-08-01T11:43:42.415Z,48.30
2022-08-01T11:44:42.209Z,49.90
2022-08-01T11:45:42.188Z,49.82
2022-08-01T11:46:42.178Z,49.77
2022-08-01T11:47:42.161Z,49.97
2022-08-01T11:48:42.151Z,50.49
2022-08-01T11:49:43.521Z,51.18
2022-08-01T11:50:42.126Z,51.89
2022-08-01T11:51:42.113Z,51.59
2022-08-01T11:52:42.104Z,51.59
2022-08-01T11:53:42.087Z,52.48
2022-08-01T11:54:42.095Z,51.99
2022-08-01T11:55:42.069Z,51.23
2022-08-01T11:56:43.053Z,52.31
2022-08-01T11:57:42.042Z,51.82
2022-08-01T11:58:42.032Z,51.35
2022-08-01T12:00:03.190Z,53.62
2022-08-01T12:00:44.052Z,52.14
2022-08-01T12:01:41.997Z,52.46
2022-08-01T12:02:42.117Z,51.97
2022-08-01T12:03:41.962Z,52.17
2022-08-01T12:04:41.955Z,53.15
2022-08-01T12:05:43.188Z,52.39
2022-08-01T12:06:41.928Z,53.08
2022-08-01T12:07:41.913Z,53.35
2022-08-01T12:08:41.901Z,52.36
2022-08-01T12:09:41.887Z,51.97
2022-08-01T12:10:49.383Z,52.66
2022-08-01T12:11:42.907Z,52.66
2022-08-01T12:12:41.861Z,51.92
2022-08-01T12:13:41.846Z,50.81
2022-08-01T12:14:41.836Z,50.98
2022-08-01T12:15:41.822Z,50.59
2022-08-01T12:16:41.806Z,49.35
2022-08-01T12:17:57.357Z,48.74
2022-08-01T12:18:41.781Z,49.50
2022-08-01T12:19:41.761Z,48.57
2022-08-01T12:20:55.758Z,48.37
2022-08-01T12:21:41.737Z,47.80
2022-08-01T12:22:41.732Z,47.61
2022-08-01T12:23:41.716Z,49.30
2022-08-01T12:24:41.713Z,48.69
2022-08-01T12:25:41.696Z,49.46
2022-08-01T12:26:41.679Z,50.32
2022-08-01T12:27:41.664Z,48.91
2022-08-01T12:28:41.656Z,47.74
2022-08-01T12:29:41.639Z,48.69
2022-08-01T12:30:41.632Z,46.81
2022-08-01T12:31:41.615Z,45.16
2022-08-01T12:32:41.607Z,46.28
2022-08-01T12:33:41.589Z,46.78
2022-08-01T12:34:41.585Z,46.01
2022-08-01T12:35:41.573Z,47.78
2022-08-01T12:36:41.565Z,45.79
2022-08-01T12:37:41.545Z,46.19
2022-08-01T12:38:41.532Z,46.73
2022-08-01T12:39:41.519Z,47.10
2022-08-01T12:40:45.039Z,45.61
2022-08-01T12:41:41.497Z,45.98
2022-08-01T12:42:41.513Z,46.25
2022-08-01T12:43:41.467Z,44.09
2022-08-01T12:44:41.461Z,44.98
2022-08-01T12:45:54.386Z,44.02
2022-08-01T12:46:44.380Z,45.02
2022-08-01T12:47:41.418Z,46.59
2022-08-01T12:48:41.515Z,44.53
2022-08-01T12:49:41.395Z,43.94
2022-08-01T12:50:41.387Z,43.94
2022-08-01T12:51:41.374Z,44.62
2022-08-01T12:52:41.370Z,45.21